Time;durP1;ratioP1;P1;durP2;ratioP2;P2;SDS_P1;SDS_P2;PMS_P1;PMS_P2;Temp;Humidity;BMP_temperature;BMP_pressure;BME280_temperature;BME280_humidity;BME280_pressure;Samples;Min_cycle;Max_cycle;Signal;HPM_P1;HPM_P2
2022/04/14 00:00:17;;;;;;;5.25;2.72;;;;;;;2.83;71.02;99750.34;5019402;28;20420;-65
2022/04/14 00:02:42;;;;;;;5.07;3.13;;;;;;;2.82;71.23;99748.66;5015985;28;20049;-66
2022/04/14 00:05:07;;;;;;;4.05;2.35;;;;;;;2.79;71.72;99759.31;5007646;28;20127;-65
2022/04/14 00:07:32;;;;;;;9.18;3.60;;;;;;;2.80;71.89;99753.97;4978072;28;20045;-66
2022/04/14 00:09:57;;;;;;;3.78;2.25;;;;;;;2.78;71.55;99749.69;4996011;28;20072;-68
2022/04/14 00:12:21;;;;;;;3.90;2.58;;;;;;;2.76;71.41;99752.38;4999069;28;20052;-67
2022/04/14 00:14:47;;;;;;;4.18;2.58;;;;;;;2.76;71.42;99743.63;5025640;28;20051;-65
2022/04/14 00:17:12;;;;;;;3.20;2.13;;;;;;;2.73;71.31;99743.72;5023350;28;20424;-65
2022/04/14 00:19:37;;;;;;;3.50;2.65;;;;;;;2.69;71.89;99737.75;5021092;28;20036;-64
2022/04/14 00:22:01;;;;;;;3.90;2.72;;;;;;;2.66;72.11;99743.13;5015344;28;20048;-69
2022/04/14 00:24:26;;;;;;;5.80;2.35;;;;;;;2.64;71.96;99742.31;5004462;28;20052;-67
2022/04/14 00:26:51;;;;;;;3.33;2.33;;;;;;;2.63;71.49;99748.47;5030131;28;20131;-67
2022/04/14 00:29:16;;;;;;;2.58;2.15;;;;;;;2.62;71.87;99740.63;5022586;28;20049;-72
2022/04/14 00:31:41;;;;;;;4.38;2.50;;;;;;;2.57;72.00;99746.09;5014984;28;20098;-74
2022/04/14 00:34:05;;;;;;;3.60;2.45;;;;;;;2.60;71.89;99734.59;5016804;28;20135;-72
2022/04/14 00:36:33;;;;;;;3.47;2.30;;;;;;;2.60;72.01;99742.50;5026539;28;20048;-74
2022/04/14 00:38:57;;;;;;;4.95;2.45;;;;;;;2.58;71.65;99731.16;5016388;28;20518;-73
2022/04/14 00:41:22;;;;;;;2.00;1.83;;;;;;;2.55;71.84;99730.34;5015847;28;20496;-73
2022/04/14 00:43:52;;;;;;;3.47;2.00;;;;;;;2.59;71.82;99735.50;5020808;28;20036;-72
2022/04/14 00:46:18;;;;;;;2.33;2.08;;;;;;;2.52;71.57;99733.09;5026578;28;20052;-75
2022/04/14 00:48:43;;;;;;;3.00;2.17;;;;;;;2.48;72.05;99742.00;5039299;28;20029;-75
2022/04/14 00:51:08;;;;;;;3.20;2.38;;;;;;;2.46;72.15;99730.72;5029234;28;20048;-82
2022/04/14 00:53:33;;;;;;;2.80;2.47;;;;;;;2.44;72.09;99739.56;5037209;28;20036;-79
2022/04/14 00:55:57;;;;;;;2.38;1.83;;;;;;;2.39;72.48;99731.81;5036235;28;20049;-78
2022/04/14 00:58:22;;;;;;;2.80;2.13;;;;;;;2.36;72.57;99737.22;5037225;28;20045;-76
2022/04/14 01:00:47;;;;;;;2.08;1.90;;;;;;;2.35;72.18;99739.91;5035327;28;20065;-77
2022/04/14 01:03:13;;;;;;;2.15;1.75;;;;;;;2.35;72.76;99726.75;5021790;28;20040;-75
2022/04/14 01:05:38;;;;;;;3.65;2.00;;;;;;;2.32;72.40;99734.75;5031713;28;20052;-74
2022/04/14 01:08:05;;;;;;;3.47;2.25;;;;;;;2.31;72.89;99736.53;5030715;28;20071;-74
2022/04/14 01:10:32;;;;;;;2.83;2.00;;;;;;;2.28;72.31;99749.78;5027436;28;20483;-75
2022/04/14 01:12:57;;;;;;;2.30;1.92;;;;;;;2.28;72.61;99752.41;5014615;28;20106;-73
2022/04/14 01:15:22;;;;;;;2.70;1.67;;;;;;;2.29;72.73;99742.75;4982279;28;20045;-73
2022/04/14 01:17:47;;;;;;;2.33;1.80;;;;;;;2.26;72.33;99746.34;5017422;28;20103;-74
2022/04/14 01:20:13;;;;;;;4.60;1.92;;;;;;;2.23;72.77;99751.72;5001388;28;20043;-75
2022/04/14 01:23:02;;;;;;;2.30;1.77;;;;;;;2.22;73.17;99742.13;5001791;28;20510;-72
2022/04/14 01:25:27;;;;;;;2.92;1.77;;;;;;;2.17;72.56;99744.03;5018072;28;20107;-74
2022/04/14 01:27:52;;;;;;;2.50;2.05;;;;;;;2.13;72.87;99745.94;5017557;28;20097;-69
2022/04/14 01:30:17;;;;;;;3.67;1.90;;;;;;;2.08;72.98;99745.25;5002662;28;20041;-73
2022/04/14 01:32:43;;;;;;;2.33;1.77;;;;;;;2.07;72.90;99743.50;5028501;28;20047;-72
2022/04/14 01:35:09;;;;;;;3.22;2.13;;;;;;;2.06;72.77;99736.53;5021565;28;20498;-72
2022/04/14 01:37:34;;;;;;;2.53;1.67;;;;;;;2.01;73.07;99737.63;5025526;28;20056;-75
2022/04/14 01:39:59;;;;;;;2.58;2.13;;;;;;;1.99;73.49;99747.34;5005075;28;20042;-78
2022/04/14 01:42:24;;;;;;;3.15;1.92;;;;;;;1.95;73.06;99746.56;4998951;28;20048;-78
2022/04/14 01:44:48;;;;;;;1.95;1.73;;;;;;;1.91;73.73;99744.13;4999093;28;20109;-76
2022/04/14 01:47:13;;;;;;;2.78;1.70;;;;;;;1.90;73.44;99752.91;4975222;28;20053;-78
2022/04/14 01:49:38;;;;;;;2.00;1.80;;;;;;;1.90;73.67;99742.41;4994920;28;20049;-76
2022/04/14 01:52:03;;;;;;;3.08;2.45;;;;;;;1.91;73.51;99742.34;5016600;28;20041;-76
2022/04/14 01:54:28;;;;;;;2.13;1.73;;;;;;;1.89;73.28;99753.81;5016922;28;20040;-75
2022/04/14 01:56:53;;;;;;;2.95;2.00;;;;;;;1.84;73.61;99746.09;5015979;28;20049;-79
2022/04/14 01:59:18;;;;;;;2.22;1.67;;;;;;;1.81;73.57;99751.44;4983983;28;20507;-77
2022/04/14 02:01:43;;;;;;;2.08;1.83;;;;;;;1.78;73.92;99749.81;5018273;28;20805;-80
2022/04/14 02:04:08;;;;;;;1.42;1.30;;;;;;;1.75;73.49;99751.66;4983971;28;20402;-79
2022/04/14 02:06:34;;;;;;;2.03;1.80;;;;;;;1.73;74.14;99751.72;5018482;28;20481;-77
2022/04/14 02:08:58;;;;;;;2.15;1.83;;;;;;;1.70;74.14;99762.31;5021085;28;20466;-77
2022/04/14 02:11:23;;;;;;;1.77;1.67;;;;;;;1.70;74.34;99758.81;4987070;28;20492;-77
2022/04/14 02:13:48;;;;;;;3.22;2.20;;;;;;;1.67;74.26;99751.94;5004734;28;20037;-73
2022/04/14 02:16:13;;;;;;;2.05;1.50;;;;;;;1.67;74.01;99757.19;5029965;28;20061;-77
2022/04/14 02:18:38;;;;;;;2.10;1.90;;;;;;;1.67;74.40;99749.31;5008179;28;20195;-77
2022/04/14 02:21:03;;;;;;;3.28;2.10;;;;;;;1.66;74.08;99752.84;5028206;28;20055;-76
2022/04/14 02:23:29;;;;;;;2.50;1.70;;;;;;;1.63;74.31;99754.69;5021021;28;20049;-76
2022/04/14 02:25:54;;;;;;;3.90;2.38;;;;;;;1.59;74.40;99756.56;5020931;28;20045;-79
2022/04/14 02:28:19;;;;;;;2.90;1.95;;;;;;;1.58;74.45;99756.66;5020905;28;20043;-76
2022/04/14 02:30:44;;;;;;;2.92;1.63;;;;;;;1.59;74.81;99771.47;5019377;28;20041;-78
2022/04/14 02:33:09;;;;;;;2.65;1.95;;;;;;;1.58;74.82;99767.97;5020093;28;20044;-76
2022/04/14 02:35:34;;;;;;;3.58;2.22;;;;;;;1.58;74.60;99765.34;5019530;28;20041;-77
2022/04/14 02:37:58;;;;;;;3.17;1.77;;;;;;;1.56;74.50;99780.34;5003991;28;20052;-76
2022/04/14 02:40:25;;;;;;;2.78;1.98;;;;;;;1.56;74.69;99772.44;5025461;28;20417;-73
2022/04/14 02:42:53;;;;;;;3.13;1.60;;;;;;;1.58;74.84;99781.13;5009629;28;20039;-76
2022/04/14 02:45:18;;;;;;;2.90;2.35;;;;;;;1.55;74.79;99778.63;5025087;28;20049;-74
2022/04/14 02:47:43;;;;;;;4.78;2.85;;;;;;;1.58;74.62;99775.84;5023921;28;20406;-74
2022/04/14 02:50:08;;;;;;;2.38;1.58;;;;;;;1.58;74.91;99778.50;5035169;28;20068;-73
2022/04/14 02:52:32;;;;;;;2.72;2.08;;;;;;;1.62;74.87;99788.00;5009957;28;20116;-74
2022/04/14 02:54:57;;;;;;;2.05;1.92;;;;;;;1.64;74.28;99787.97;4992421;28;20152;-68
2022/04/14 02:57:22;;;;;;;2.40;1.60;;;;;;;1.65;74.41;99793.16;5001305;28;20052;-73
2022/04/14 02:59:47;;;;;;;3.25;2.25;;;;;;;1.65;74.32;99798.41;5004078;28;20525;-73
2022/04/14 03:02:11;;;;;;;3.10;2.05;;;;;;;1.67;74.43;99804.50;5025800;28;20037;-68
2022/04/14 03:04:36;;;;;;;3.78;2.72;;;;;;;1.66;74.40;99800.13;5018642;28;20106;-67
2022/04/14 03:07:01;;;;;;;2.70;1.98;;;;;;;1.71;74.61;99799.97;5017545;28;20045;-68
2022/04/14 03:09:25;;;;;;;1.67;1.52;;;;;;;1.76;74.07;99812.06;5018060;28;20514;-68
2022/04/14 03:11:50;;;;;;;2.08;1.70;;;;;;;1.81;74.48;99806.63;5000671;28;20052;-69
2022/04/14 03:14:15;;;;;;;4.35;2.25;;;;;;;1.87;74.36;99811.72;5004267;28;20041;-70
2022/04/14 03:16:40;;;;;;;3.58;2.35;;;;;;;1.93;74.08;99813.25;5036409;28;20045;-73
2022/04/14 03:19:05;;;;;;;4.25;2.28;;;;;;;2.01;74.30;99812.09;5022201;28;20048;-73
2022/04/14 03:21:30;;;;;;;4.10;2.40;;;;;;;2.16;73.91;99815.97;5006903;28;20048;-74
2022/04/14 03:23:54;;;;;;;6.90;2.25;;;;;;;2.35;73.73;99805.69;4992122;28;20056;-71
2022/04/14 03:26:19;;;;;;;2.40;2.00;;;;;;;2.51;73.21;99810.31;5022814;28;20037;-76
2022/04/14 03:28:44;;;;;;;2.78;2.30;;;;;;;2.67;72.75;99809.78;5003985;28;20083;-75
2022/04/14 03:31:10;;;;;;;2.72;1.92;;;;;;;2.82;72.86;99827.66;5002525;28;20411;-76
2022/04/14 03:33:34;;;;;;;2.55;1.98;;;;;;;2.98;72.23;99812.13;5008525;28;20098;-77
2022/04/14 03:35:59;;;;;;;2.22;2.03;;;;;;;3.14;71.78;99808.84;5016163;28;20033;-75
2022/04/14 03:38:24;;;;;;;6.80;2.35;;;;;;;3.34;71.15;99815.13;5017570;28;20048;-74
2022/04/14 03:40:49;;;;;;;5.55;2.35;;;;;;;3.53;70.71;99816.09;5016197;28;20073;-72
2022/04/14 03:43:16;;;;;;;3.28;2.35;;;;;;;3.74;70.21;99809.94;5015675;28;20084;-72
2022/04/14 03:45:40;;;;;;;2.88;2.28;;;;;;;3.91;70.11;99812.75;5016356;28;20048;-73
2022/04/14 03:48:05;;;;;;;2.47;2.28;;;;;;;4.08;69.33;99812.03;5016115;28;20045;-73
2022/04/14 03:50:30;;;;;;;1.98;1.80;;;;;;;4.20;69.13;99808.00;4998552;28;20048;-75
2022/04/14 03:52:55;;;;;;;3.42;1.77;;;;;;;4.34;68.40;99810.94;4998328;28;20044;-72
2022/04/14 03:55:19;;;;;;;2.10;1.80;;;;;;;4.52;68.01;99818.03;4982774;28;20488;-68
2022/04/14 03:57:44;;;;;;;2.47;1.83;;;;;;;4.70;67.45;99822.50;4998709;28;20340;-70
2022/04/14 04:00:10;;;;;;;2.03;1.67;;;;;;;4.89;67.15;99813.75;5016007;28;20057;-69
2022/04/14 04:02:36;;;;;;;5.25;2.40;;;;;;;5.04;66.14;99820.97;5016998;28;20051;-67
2022/04/14 04:05:01;;;;;;;3.45;2.50;;;;;;;5.17;66.44;99816.00;4998529;28;20562;-67
2022/04/14 04:07:25;;;;;;;2.33;1.40;;;;;;;5.31;65.58;99817.03;5016280;28;20942;-69
2022/04/14 04:09:50;;;;;;;2.40;1.80;;;;;;;5.47;65.05;99815.38;5016358;28;20040;-68
2022/04/14 04:12:15;;;;;;;5.65;2.47;;;;;;;5.67;64.57;99809.13;5016679;28;20053;-68
2022/04/14 04:14:41;;;;;;;2.25;1.90;;;;;;;5.88;64.25;99819.59;5017519;28;20051;-68
2022/04/14 04:17:06;;;;;;;3.85;1.98;;;;;;;6.07;63.29;99816.00;5016142;28;20143;-69
2022/04/14 04:19:31;;;;;;;3.40;1.88;;;;;;;6.26;62.25;99813.25;4997592;28;20132;-68
2022/04/14 04:21:56;;;;;;;3.95;1.92;;;;;;;6.45;62.25;99819.31;4998494;28;20060;-68
2022/04/14 04:24:20;;;;;;;2.55;1.70;;;;;;;6.56;61.60;99816.13;5016111;28;20044;-67
2022/04/14 04:26:45;;;;;;;3.90;2.35;;;;;;;6.71;60.99;99810.00;5015349;28;20048;-68
2022/04/14 04:29:10;;;;;;;5.25;2.22;;;;;;;6.91;60.59;99806.28;5015412;28;20451;-68
2022/04/14 04:31:35;;;;;;;2.20;2.00;;;;;;;7.11;60.12;99810.53;4997689;28;20072;-68
2022/04/14 04:34:00;;;;;;;2.50;2.00;;;;;;;7.37;59.75;99809.94;5014455;28;20049;-68
2022/04/14 04:36:25;;;;;;;2.53;1.98;;;;;;;7.62;58.92;99812.94;4996703;28;20037;-68
2022/04/14 04:38:49;;;;;;;5.35;2.70;;;;;;;7.86;58.13;99809.81;5015797;28;20098;-68
2022/04/14 04:41:14;;;;;;;3.17;1.88;;;;;;;8.07;56.96;99805.06;5016187;28;20963;-67
2022/04/14 04:43:39;;;;;;;2.42;2.22;;;;;;;8.22;56.42;99799.72;4998425;28;20040;-69
2022/04/14 04:46:04;;;;;;;6.07;2.30;;;;;;;8.31;55.89;99799.19;5016062;28;20484;-68
2022/04/14 04:48:31;;;;;;;1.70;1.60;;;;;;;8.46;55.37;99804.53;4998863;28;20507;-68
2022/04/14 04:50:56;;;;;;;7.70;2.58;;;;;;;8.57;55.15;99810.91;5017099;28;20124;-74
2022/04/14 04:53:21;;;;;;;4.60;2.30;;;;;;;8.75;54.65;99803.59;5016092;28;20136;-68
2022/04/14 04:55:45;;;;;;;2.78;2.50;;;;;;;8.91;54.39;99809.72;5015883;28;20049;-69
2022/04/14 04:58:10;;;;;;;3.25;1.98;;;;;;;9.07;54.06;99807.78;5016294;28;20053;-67
2022/04/14 05:00:35;;;;;;;6.40;2.38;;;;;;;9.22;53.12;99805.13;5015236;28;20064;-67
2022/04/14 05:03:00;;;;;;;2.83;1.90;;;;;;;9.36;52.58;99813.94;5015807;28;20103;-66
2022/04/14 05:05:25;;;;;;;3.78;2.25;;;;;;;9.55;52.54;99810.09;5013792;28;20103;-67
2022/04/14 05:07:50;;;;;;;3.50;2.00;;;;;;;9.78;52.03;99806.78;4998276;28;20435;-67
2022/04/14 05:10:15;;;;;;;4.38;2.05;;;;;;;10.20;50.94;99808.44;5015085;28;20044;-67
2022/04/14 05:12:40;;;;;;;8.93;2.33;;;;;;;10.63;49.97;99810.84;4980927;28;20037;-67
2022/04/14 05:15:05;;;;;;;8.43;1.92;;;;;;;11.01;49.19;99805.50;4996714;28;20048;-67
2022/04/14 05:17:30;;;;;;;2.60;1.80;;;;;;;11.29;47.85;99811.41;4997500;28;20135;-67
2022/04/14 05:19:55;;;;;;;4.90;1.90;;;;;;;11.50;47.05;99803.69;5014820;28;20191;-66
2022/04/14 05:22:19;;;;;;;2.53;1.85;;;;;;;11.71;46.88;99806.63;4997668;28;20055;-67
2022/04/14 05:24:44;;;;;;;3.00;2.00;;;;;;;12.02;46.05;99809.72;4997203;28;20488;-66
2022/04/14 05:27:09;;;;;;;7.50;2.65;;;;;;;12.41;44.95;99805.84;5014259;28;20407;-68
2022/04/14 05:29:35;;;;;;;5.78;2.22;;;;;;;12.72;43.80;99803.38;5016880;28;20049;-66
2022/04/14 05:32:00;;;;;;;6.30;2.50;;;;;;;13.05;44.04;99812.41;5017118;28;20384;-66
2022/04/14 05:34:25;;;;;;;2.72;1.73;;;;;;;13.44;42.58;99803.88;5015061;28;20415;-65
2022/04/14 05:36:50;;;;;;;4.15;1.75;;;;;;;13.84;41.92;99807.84;5013585;28;20511;-66
2022/04/14 05:39:14;;;;;;;5.85;2.45;;;;;;;13.98;40.07;99803.03;5014082;28;20412;-66
2022/04/14 05:41:39;;;;;;;3.13;2.00;;;;;;;13.98;40.31;99800.38;4998422;28;20041;-66
2022/04/14 05:44:04;;;;;;;6.63;2.17;;;;;;;14.24;39.62;99805.34;5017970;28;20041;-66
2022/04/14 05:46:28;;;;;;;3.30;2.03;;;;;;;14.61;38.77;99803.97;5018140;28;20552;-68
2022/04/14 05:49:03;;;;;;;2.65;1.70;;;;;;;14.98;38.67;99809.72;5018258;28;20045;-65
2022/04/14 05:51:28;;;;;;;3.45;1.85;;;;;;;15.31;36.96;99803.22;5018477;28;20041;-66
2022/04/14 05:53:53;;;;;;;5.03;1.75;;;;;;;15.68;36.66;99800.81;5018813;28;20052;-66
2022/04/14 05:56:18;;;;;;;5.60;2.33;;;;;;;16.00;35.45;99816.72;5019138;28;20136;-66
2022/04/14 05:58:43;;;;;;;2.28;1.48;;;;;;;16.42;34.95;99806.53;5000592;28;20049;-66
2022/04/14 06:01:08;;;;;;;4.00;2.13;;;;;;;16.83;34.36;99813.44;5017851;28;20057;-66
2022/04/14 06:03:33;;;;;;;4.78;1.80;;;;;;;17.50;33.44;99816.88;5017922;28;20052;-66
2022/04/14 06:05:58;;;;;;;4.10;1.80;;;;;;;17.90;32.16;99819.25;5017966;28;20048;-65
2022/04/14 06:08:22;;;;;;;2.35;1.85;;;;;;;18.11;31.22;99815.25;5000379;28;20048;-66
2022/04/14 06:10:47;;;;;;;7.15;1.88;;;;;;;18.45;31.36;99812.72;5000639;28;20060;-66
2022/04/14 06:13:12;;;;;;;5.10;2.15;;;;;;;18.83;30.37;99824.19;5018153;28;20048;-67
2022/04/14 06:15:37;;;;;;;5.00;3.17;;;;;;;19.19;29.90;99817.63;5017926;28;20135;-66
2022/04/14 06:18:01;;;;;;;4.90;2.28;;;;;;;19.51;29.26;99813.47;5018386;28;20053;-67
2022/04/14 06:20:27;;;;;;;9.63;2.30;;;;;;;19.82;29.20;99821.84;5018623;28;20126;-67
2022/04/14 06:22:52;;;;;;;2.80;2.08;;;;;;;20.06;28.16;99812.94;5000598;28;20048;-67
2022/04/14 06:25:22;;;;;;;3.20;2.13;;;;;;;20.28;27.94;99820.44;5017879;28;20458;-67
2022/04/14 06:27:47;;;;;;;10.88;2.70;;;;;;;20.49;27.63;99825.38;5018804;28;20097;-67
2022/04/14 06:30:16;;;;;;;3.72;1.92;;;;;;;20.71;27.37;99829.28;5018354;28;20167;-67
2022/04/14 06:32:41;;;;;;;3.95;3.40;;;;;;;20.82;26.95;99829.78;5017701;28;20049;-69
2022/04/14 06:35:08;;;;;;;7.95;2.42;;;;;;;21.05;26.39;99829.91;4999603;28;20045;-68
2022/04/14 06:37:36;;;;;;;5.53;2.25;;;;;;;21.38;25.87;99825.28;5017914;28;20094;-68
2022/04/14 06:40:02;;;;;;;3.15;2.38;;;;;;;21.98;25.67;99841.00;5017608;28;20055;-68
2022/04/14 06:42:29;;;;;;;3.65;1.80;;;;;;;22.27;24.57;99834.91;4983665;28;20817;-68
2022/04/14 06:45:00;;;;;;;3.20;2.15;;;;;;;22.38;24.70;99816.31;4999210;28;20084;-68
2022/04/14 06:47:26;;;;;;;4.65;2.20;;;;;;;22.67;23.85;99815.59;4982931;28;20067;-67
2022/04/14 06:49:51;;;;;;;3.25;2.30;;;;;;;23.36;23.86;99819.00;4999652;28;20045;-67
2022/04/14 06:52:17;;;;;;;5.82;2.28;;;;;;;24.00;23.24;99832.84;5016191;28;20068;-66
2022/04/14 06:54:42;;;;;;;3.30;2.03;;;;;;;24.62;22.23;99818.63;4999749;28;20122;-67
2022/04/14 06:57:06;;;;;;;5.68;2.53;;;;;;;25.26;21.51;99819.41;5016857;28;20107;-66
2022/04/14 06:59:31;;;;;;;5.63;2.85;;;;;;;25.90;21.13;99821.84;5017240;28;20399;-67
2022/04/14 07:01:56;;;;;;;7.03;2.55;;;;;;;26.39;20.55;99828.97;5017475;28;20503;-68
2022/04/14 07:04:20;;;;;;;3.83;2.47;;;;;;;26.58;19.91;99824.59;4999400;28;20055;-68
2022/04/14 07:06:46;;;;;;;12.85;3.08;;;;;;;26.55;19.59;99825.84;5017637;28;20123;-68
2022/04/14 07:09:11;;;;;;;8.63;3.00;;;;;;;26.63;19.36;99816.63;5018075;28;20407;-67
2022/04/14 07:11:36;;;;;;;3.90;2.45;;;;;;;26.55;19.37;99808.59;4982966;28;20412;-68
2022/04/14 07:14:00;;;;;;;2.90;2.22;;;;;;;26.52;19.83;99809.88;4999609;28;20037;-71
2022/04/14 07:16:26;;;;;;;3.20;2.50;;;;;;;26.45;19.32;99819.09;5017574;28;20037;-69
2022/04/14 07:18:50;;;;;;;3.95;2.30;;;;;;;26.60;19.41;99819.75;5016671;28;20057;-68
2022/04/14 07:21:15;;;;;;;4.43;2.35;;;;;;;27.06;18.83;99820.63;4999262;28;20072;-66
2022/04/14 07:23:40;;;;;;;3.75;2.35;;;;;;;27.44;18.70;99818.03;5017300;28;20060;-67
2022/04/14 07:26:05;;;;;;;6.97;2.38;;;;;;;27.76;18.40;99804.50;5017371;28;20045;-66
2022/04/14 07:28:29;;;;;;;5.57;2.67;;;;;;;27.98;17.76;99802.28;5017929;28;20033;-67
2022/04/14 07:30:55;;;;;;;5.40;3.08;;;;;;;28.09;17.79;99801.59;5017714;28;20091;-67
2022/04/14 07:33:20;;;;;;;4.30;2.90;;;;;;;28.33;17.83;99805.50;4999295;28;20045;-67
2022/04/14 07:35:45;;;;;;;5.72;2.70;;;;;;;28.52;17.39;99805.38;5017510;28;20036;-67
2022/04/14 07:38:10;;;;;;;5.80;3.05;;;;;;;28.57;17.42;99801.94;5001252;28;20072;-67
2022/04/14 07:40:34;;;;;;;4.97;2.50;;;;;;;28.10;17.03;99801.34;5000114;28;20079;-67
2022/04/14 07:42:59;;;;;;;4.57;2.50;;;;;;;27.56;17.52;99788.13;5003447;28;20049;-67
2022/04/14 07:45:24;;;;;;;5.75;3.10;;;;;;;28.08;17.75;99783.47;5017701;28;20045;-67
2022/04/14 07:47:49;;;;;;;5.82;3.00;;;;;;;28.43;16.86;99793.00;5017127;28;20036;-67
2022/04/14 07:50:19;;;;;;;8.00;3.20;;;;;;;28.89;16.97;99806.34;5016215;28;20495;-66
2022/04/14 07:52:46;;;;;;;3.03;2.72;;;;;;;29.10;16.52;99796.03;5016592;28;20037;-67
2022/04/14 07:55:11;;;;;;;3.47;2.78;;;;;;;28.49;16.13;99794.81;5016247;28;20053;-67
2022/04/14 07:57:36;;;;;;;5.80;2.63;;;;;;;27.83;16.39;99795.19;4998255;28;20045;-68
2022/04/14 08:00:00;;;;;;;5.35;2.45;;;;;;;27.71;17.26;99796.06;5016268;28;20060;-67
2022/04/14 08:02:25;;;;;;;3.58;3.20;;;;;;;28.31;16.68;99794.75;4998371;28;20049;-70
2022/04/14 08:04:51;;;;;;;7.25;2.80;;;;;;;29.26;16.29;99801.78;4997811;28;20045;-71
2022/04/14 08:07:16;;;;;;;10.80;2.83;;;;;;;30.02;15.71;99796.94;4965466;28;20045;-70
2022/04/14 08:09:41;;;;;;;4.32;2.50;;;;;;;29.95;14.79;99800.59;5014989;28;20052;-68
2022/04/14 08:12:06;;;;;;;4.10;2.80;;;;;;;29.72;15.18;99796.88;5016686;28;20045;-65
2022/04/14 08:14:31;;;;;;;3.25;2.70;;;;;;;29.65;15.07;99799.69;5030456;28;20052;-64
2022/04/14 08:16:58;;;;;;;4.65;2.72;;;;;;;29.56;15.33;99803.84;5029844;28;20095;-66
2022/04/14 08:19:23;;;;;;;2.72;2.35;;;;;;;29.59;14.60;99803.34;5014548;28;20044;-65
2022/04/14 08:21:47;;;;;;;4.00;2.33;;;;;;;29.70;14.83;99799.00;5003352;28;20040;-64
2022/04/14 08:24:12;;;;;;;5.28;3.00;;;;;;;30.18;14.52;99804.53;5027643;28;20048;-66
2022/04/14 08:26:37;;;;;;;5.35;2.78;;;;;;;30.56;14.06;99794.06;4998289;28;20403;-67
2022/04/14 08:29:02;;;;;;;7.78;2.67;;;;;;;31.08;13.71;99856.72;5016856;28;20128;-66
2022/04/14 08:31:27;;;;;;;2.97;2.53;;;;;;;31.50;13.47;99799.59;5016201;28;20511;-65
2022/04/14 08:33:52;;;;;;;7.20;3.28;;;;;;;31.74;13.92;99795.75;5017975;28;20041;-65
2022/04/14 08:36:17;;;;;;;3.38;2.90;;;;;;;31.98;13.15;99805.63;5016368;28;20385;-65
2022/04/14 08:38:44;;;;;;;3.90;3.03;;;;;;;32.52;12.80;99794.25;4999707;28;20135;-65
2022/04/14 08:41:11;;;;;;;4.38;3.00;;;;;;;32.97;12.41;99797.81;5016936;28;20157;-66
2022/04/14 08:43:36;;;;;;;4.35;3.67;;;;;;;33.24;12.08;99780.59;5016240;28;20131;-65
2022/04/14 08:46:03;;;;;;;6.13;3.17;;;;;;;33.87;12.01;99782.84;5016102;28;20128;-66
2022/04/14 08:48:28;;;;;;;5.85;2.92;;;;;;;34.05;11.60;99784.44;4998347;28;20055;-66
2022/04/14 08:50:54;;;;;;;2.97;2.78;;;;;;;34.19;11.48;99781.00;5015689;28;20136;-65
2022/04/14 08:53:22;;;;;;;4.18;3.25;;;;;;;34.36;11.08;99800.31;5020316;28;20045;-66
2022/04/14 08:55:48;;;;;;;3.80;3.40;;;;;;;34.54;11.17;99777.78;5029295;28;20051;-65
2022/04/14 08:58:14;;;;;;;3.50;3.10;;;;;;;34.72;10.63;99778.50;5015542;28;20067;-71
2022/04/14 09:00:38;;;;;;;4.85;2.95;;;;;;;35.01;10.56;99781.78;5032960;28;20075;-65
2022/04/14 09:03:03;;;;;;;2.97;2.70;;;;;;;35.21;10.83;99774.47;5012528;28;20105;-65
2022/04/14 09:05:28;;;;;;;2.95;2.83;;;;;;;35.10;11.17;99775.50;5024132;28;20556;-67
2022/04/14 09:07:53;;;;;;;3.65;3.22;;;;;;;35.16;10.59;99768.03;5016892;28;20048;-64
2022/04/14 09:10:19;;;;;;;3.33;3.00;;;;;;;35.42;10.56;99778.22;5014748;28;20491;-66
2022/04/14 09:12:44;;;;;;;7.55;3.40;;;;;;;35.38;10.61;99765.97;5016279;28;20488;-65
2022/04/14 09:15:11;;;;;;;6.30;3.63;;;;;;;35.51;10.30;99761.91;5015785;28;20048;-67
2022/04/14 09:17:36;;;;;;;4.00;3.00;;;;;;;35.64;10.45;99759.47;5019110;28;20502;-66
2022/04/14 09:20:37;;;;;;;5.63;3.80;;;;;;;36.56;10.91;99765.31;5019300;28;20126;-67
2022/04/14 09:23:18;;;;;;;3.70;3.40;;;;;;;36.98;9.64;99768.66;5019545;28;20529;-67
2022/04/14 09:25:43;;;;;;;6.80;3.50;;;;;;;36.62;9.53;99756.69;5019735;28;20124;-67
2022/04/14 09:28:09;;;;;;;3.30;3.10;;;;;;;36.08;9.80;99766.56;5001189;28;20072;-67
2022/04/14 09:30:34;;;;;;;3.53;3.22;;;;;;;35.88;10.16;99772.91;5019296;28;20416;-66
2022/04/14 09:32:59;;;;;;;3.50;3.30;;;;;;;35.93;9.83;99759.88;5018638;28;20456;-73
2022/04/14 09:35:26;;;;;;;3.95;3.63;;;;;;;35.86;9.87;99752.91;5001229;28;20032;-65
2022/04/14 09:38:03;;;;;;;3.80;3.28;;;;;;;36.15;10.62;99770.75;5001156;28;20055;-67
2022/04/14 09:40:30;;;;;;;3.60;3.30;;;;;;;36.20;9.61;99756.88;5019677;28;20059;-67
2022/04/14 09:42:54;;;;;;;4.57;3.67;;;;;;;36.55;9.63;99749.75;5019210;28;20128;-66
2022/04/14 09:45:25;;;;;;;3.53;3.22;;;;;;;36.85;8.68;99760.88;5017442;28;20179;-65
2022/04/14 09:47:54;;;;;;;6.30;3.45;;;;;;;36.87;9.11;99758.66;5019620;28;20045;-66
2022/04/14 09:50:27;;;;;;;3.72;3.40;;;;;;;37.04;8.69;99750.81;5018902;28;20051;-66
2022/04/14 09:52:56;;;;;;;4.03;3.60;;;;;;;37.48;9.31;99752.97;5018882;28;20460;-66
2022/04/14 09:55:21;;;;;;;4.25;3.65;;;;;;;37.43;8.72;99761.34;5019284;28;20487;-66
2022/04/14 09:58:05;;;;;;;3.92;3.63;;;;;;;37.41;9.52;99752.44;5018358;28;20533;-65
2022/04/14 10:00:47;;;;;;;5.53;3.28;;;;;;;35.98;8.90;99753.50;5000555;28;20052;-68
2022/04/14 10:03:19;;;;;;;5.28;3.55;;;;;;;35.19;9.48;99748.94;5000122;28;20098;-66
2022/04/14 10:05:46;;;;;;;8.07;3.07;;;;;;;35.26;9.46;99744.03;5018634;28;20044;-68
2022/04/14 10:08:13;;;;;;;7.15;3.53;;;;;;;35.48;9.62;99738.31;5019046;28;20592;-68
2022/04/14 10:10:41;;;;;;;3.83;3.17;;;;;;;35.61;9.40;99732.25;5002818;28;20036;-68
2022/04/14 10:13:10;;;;;;;5.10;3.03;;;;;;;34.68;9.76;99722.78;5020903;28;20455;-68
2022/04/14 10:15:38;;;;;;;2.45;2.35;;;;;;;32.94;10.13;99720.19;4985788;28;20127;-68
2022/04/14 10:18:06;;;;;;;3.08;2.38;;;;;;;29.68;11.99;99719.56;5018794;28;20514;-68
2022/04/14 10:20:32;;;;;;;3.45;2.45;;;;;;;25.99;13.69;99715.97;5019872;28;20135;-68
2022/04/14 10:22:59;;;;;;;2.95;2.22;;;;;;;22.92;15.86;99717.50;5001626;28;20075;-68
2022/04/14 10:25:25;;;;;;;5.43;1.92;;;;;;;20.63;17.63;99717.22;5000757;28;20415;-68
2022/04/14 10:27:54;;;;;;;1.98;1.85;;;;;;;19.02;19.22;99725.84;5018009;28;20479;-67
2022/04/14 10:30:20;;;;;;;1.27;1.17;;;;;;;17.72;20.49;99720.28;5021340;28;20503;-70
2022/04/14 10:32:46;;;;;;;3.03;1.92;;;;;;;16.76;21.49;99718.09;5001767;28;20510;-72
2022/04/14 10:35:11;;;;;;;2.08;1.48;;;;;;;16.01;22.41;99721.63;5002865;28;20515;-66
2022/04/14 10:37:42;;;;;;;2.42;1.70;;;;;;;15.28;24.06;99720.22;5013429;28;20041;-66
2022/04/14 10:40:09;;;;;;;5.70;2.40;;;;;;;14.64;24.43;99715.19;5034227;28;20280;-66
2022/04/14 10:42:37;;;;;;;2.25;1.58;;;;;;;14.24;24.83;99709.66;5033171;28;20133;-66
2022/04/14 10:45:17;;;;;;;2.83;1.67;;;;;;;13.99;25.17;99702.91;5014441;28;20146;-66
2022/04/14 10:47:53;;;;;;;1.85;1.58;;;;;;;13.75;26.31;99694.22;4995351;28;20063;-68
2022/04/14 10:50:20;;;;;;;3.38;1.60;;;;;;;13.52;27.85;99697.97;5028595;28;20395;-65
2022/04/14 10:53:04;;;;;;;3.10;1.98;;;;;;;13.56;26.73;99702.06;5017914;28;20044;-64
2022/04/14 10:55:40;;;;;;;1.67;1.42;;;;;;;13.39;26.97;99701.66;5017933;28;20069;-65
2022/04/14 10:58:05;;;;;;;2.97;1.73;;;;;;;13.11;27.65;99704.84;5017310;28;20048;-68
2022/04/14 11:00:37;;;;;;;4.43;2.97;;;;;;;13.05;28.23;99697.31;5017053;28;20045;-65
2022/04/14 11:03:09;;;;;;;1.88;1.60;;;;;;;12.91;28.96;99693.06;5017582;28;20088;-65
2022/04/14 11:05:41;;;;;;;2.45;1.75;;;;;;;12.90;28.79;99687.84;4999373;28;20109;-65
2022/04/14 11:08:26;;;;;;;3.42;1.83;;;;;;;12.88;28.03;99695.13;4999551;28;20095;-65
2022/04/14 11:11:11;;;;;;;3.88;1.83;;;;;;;12.86;28.22;99675.69;4999349;28;20036;-66
2022/04/14 11:13:51;;;;;;;2.42;1.75;;;;;;;12.78;28.34;99687.00;4999262;28;20424;-66
2022/04/14 11:16:44;;;;;;;3.13;2.00;;;;;;;12.75;29.10;99686.41;5017470;28;20506;-68
2022/04/14 11:19:20;;;;;;;4.32;1.88;;;;;;;12.69;29.96;99677.03;5018171;28;20083;-69
2022/04/14 11:22:10;;;;;;;4.47;1.60;;;;;;;12.71;29.36;99667.91;5027764;28;20337;-71
2022/04/14 11:24:40;;;;;;;4.55;1.75;;;;;;;12.68;29.99;99686.88;5017875;28;20056;-73
2022/04/14 11:27:16;;;;;;;6.35;1.88;;;;;;;12.69;29.27;99683.22;5016418;28;20483;-71
2022/04/14 11:29:43;;;;;;;6.82;1.55;;;;;;;12.60;29.66;99681.28;4989984;28;20045;-66
2022/04/14 11:32:09;;;;;;;4.25;1.48;;;;;;;12.50;29.35;99674.97;5016195;28;20178;-67